Redington, Nebraska
Current Conditions -  °F | °C
As of 9:53 PM on Saturday 25 Oct 2014 (Local Time) from KAIA Reporting Station
Clear Clear  
Wind Chill: 40°   Ceiling: Unl
Heat Index: 44°   Visibility: 10mi
Dew Point: 34°   Wind: 8mph
Humidity: 68%   Direction: 140°SE
Pressure: 29.95"   Gusts: NA
Location:  41.7379°N, 102.935°W
Report Text: KAIA 260353Z AUTO 14007KT 10SM CLR 07/01 A2995 RMK AO2 SLP137 T00670011
Loading
Personal Weather Stations






























Interactive Weather Map
Tropical Storm Tracking
New forecast layout! Learn more

10-Day Weather Forecast

Advertisements
Track Severe Weather on mobile